Far Sitella — 9VHY8 — position and weather

sailwx.info

Track history (hours):
 
Tides and Currents Weather Stations Pressure Air Temp Water Temp Dewpoint Dewpoint Depression Visibility Wind Speed Wind Dir Waves Ship Positions

Far Sitella

Last reported at 2018-Feb-17 17:48 UTC. Time now 2018-Feb-17 23:07 UTC.
Position N 57°53' W 001°36'.

Length 82 m; draft 5 m.

Type: Other ship. MMSI: 566783000.

Date/timePositionNaut miles runAvg speedWind from/ knotsBaromVisibWave heightAir tempDewpointWater temp
2018-Feb-17 17:48N 57°53' W 001°36'311.6
2018-Feb-17 17:30N 57°49' W 001°36'611.4
2018-Feb-17 17:00N 57°44' W 001°36'611.0
2018-Feb-17 16:30N 57°38' W 001°35'510.5
2018-Feb-17 16:00N 57°33' W 001°36'5 9.8
2018-Feb-17 15:30N 57°28' W 001°37'10 9.9
2018-Feb-17 14:28N 57°19' W 001°47'4 9.7
2018-Feb-17 14:00N 57°15' W 001°52'5 9.5
2018-Feb-17 13:31N 57°12' W 001°57'5 9.2
2018-Feb-17 13:01N 57°09' W 002°04'1 1.5
2018-Feb-17 12:31N 57°09' W 002°05'0 0.0
2018-Feb-17 11:58N 57°09' W 002°05'0 0.0
2018-Feb-17 11:29N 57°09' W 002°05'0 0.0
2018-Feb-17 10:59N 57°09' W 002°05'0 0.0
2018-Feb-17 10:29N 57°09' W 002°05'0 0.0
2018-Feb-17 09:59N 57°09' W 002°05'0 0.0
2018-Feb-17 09:29N 57°09' W 002°05'0 0.0
2018-Feb-17 08:58N 57°09' W 002°05'0 0.0
2018-Feb-17 08:29N 57°09' W 002°05'0 0.0
2018-Feb-17 07:59N 57°09' W 002°05'0 0.0
2018-Feb-17 07:29N 57°09' W 002°05'0 0.0
2018-Feb-17 06:58N 57°09' W 002°05'0 0.0
2018-Feb-17 06:28N 57°09' W 002°05'0 0.0
2018-Feb-17 05:59N 57°09' W 002°05'0 0.0
2018-Feb-17 05:29N 57°09' W 002°05'0 0.0
2018-Feb-17 04:59N 57°09' W 002°05'0 0.0
2018-Feb-17 04:29N 57°09' W 002°05'0 0.0
2018-Feb-17 03:59N 57°09' W 002°05'0 0.0
2018-Feb-17 03:29N 57°09' W 002°05'0 0.0
2018-Feb-17 02:58N 57°09' W 002°05'0 0.0
2018-Feb-17 02:29N 57°09' W 002°05'0 0.0
2018-Feb-17 01:58N 57°09' W 002°05'0 0.0
2018-Feb-17 01:29N 57°09' W 002°05'0 0.0
2018-Feb-17 00:58N 57°09' W 002°05'0 0.0
2018-Feb-17 00:28N 57°09' W 002°05'0 0.0
2018-Feb-16 23:59N 57°09' W 002°05'0 0.0
2018-Feb-16 23:28N 57°09' W 002°05'0 0.0
2018-Feb-16 22:58N 57°09' W 002°05'0 0.0
2018-Feb-16 22:28N 57°09' W 002°05'0 0.0
2018-Feb-16 21:58N 57°09' W 002°05'0 0.0
2018-Feb-16 21:28N 57°09' W 002°05'0 0.0
2018-Feb-16 20:58N 57°09' W 002°05'0 0.0
2018-Feb-16 20:28N 57°09' W 002°05'0 0.0
2018-Feb-16 19:58N 57°09' W 002°05'0 0.8
2018-Feb-16 19:30N 57°08' W 002°05'0 0.2
2018-Feb-16 19:00N 57°08' W 002°05'0 0.0
2018-Feb-16 18:30N 57°08' W 002°05'0 0.0
2018-Feb-16 18:00N 57°08' W 002°05'0 0.0
2018-Feb-16 17:30N 57°08' W 002°05'0 0.0
2018-Feb-16 17:00N 57°08' W 002°05'0 0.0
2018-Feb-16 16:30N 57°08' W 002°05'0 0.0
2018-Feb-16 16:00N 57°08' W 002°05'0 0.0
2018-Feb-16 15:30N 57°08' W 002°05'0 0.0
2018-Feb-16 15:00N 57°08' W 002°05'0 0.0
2018-Feb-16 14:30N 57°08' W 002°05'0 0.0
2018-Feb-16 14:00N 57°08' W 002°05'0 0.3
2018-Feb-16 13:31N 57°08' W 002°04'2 3.8
2018-Feb-16 13:00N 57°10' W 002°02'1 2.6
2018-Feb-16 12:30N 57°11' W 002°02'0 0.1
2018-Feb-16 11:58N 57°11' W 002°02'0 0.0
2018-Feb-16 11:28N 57°11' W 002°02'0 0.0
2018-Feb-16 10:58N 57°11' W 002°02'0 0.0
2018-Feb-16 10:28N 57°11' W 002°02'0 0.0
2018-Feb-16 09:55N 57°11' W 002°02'0 0.0
2018-Feb-16 09:28N 57°11' W 002°02'0 0.0
2018-Feb-16 08:58N 57°11' W 002°02'0 0.0
2018-Feb-16 08:28N 57°11' W 002°02'0 0.0
2018-Feb-16 07:58N 57°11' W 002°02'0 0.0
2018-Feb-16 07:28N 57°11' W 002°02'0 0.1
2018-Feb-16 06:58N 57°11' W 002°02'0 0.0
2018-Feb-16 06:28N 57°11' W 002°02'0 0.1
2018-Feb-16 05:58N 57°11' W 002°02'0 0.0
2018-Feb-16 05:28N 57°11' W 002°02'0 0.0
2018-Feb-16 04:55N 57°11' W 002°02'0 0.0
2018-Feb-16 04:28N 57°11' W 002°02'0 0.0
2018-Feb-16 03:58N 57°11' W 002°02'0 0.0
2018-Feb-16 03:28N 57°11' W 002°02'0 0.1
2018-Feb-16 02:58N 57°11' W 002°02'0 0.1
2018-Feb-16 02:28N 57°11' W 002°02'0 0.0
2018-Feb-16 01:58N 57°11' W 002°02'0 0.0
2018-Feb-16 01:28N 57°11' W 002°02'0 0.0
2018-Feb-16 00:58N 57°11' W 002°02'0 0.0
2018-Feb-16 00:28N 57°11' W 002°02'0 0.0
2018-Feb-15 23:58N 57°11' W 002°02'0 0.0
2018-Feb-15 23:28N 57°11' W 002°02'0 0.1
2018-Feb-15 22:58N 57°11' W 002°02'0 0.0
2018-Feb-15 22:25N 57°11' W 002°02'0 0.0
2018-Feb-15 21:58N 57°11' W 002°02'0 0.0
2018-Feb-15 21:28N 57°11' W 002°02'0 0.0
2018-Feb-15 20:58N 57°11' W 002°02'0 0.0
2018-Feb-15 20:28N 57°11' W 002°02'0 0.0
2018-Feb-15 19:58N 57°11' W 002°02'0 0.0
2018-Feb-15 19:28N 57°11' W 002°02'0 0.0
2018-Feb-15 18:58N 57°11' W 002°02'0 0.0
2018-Feb-15 18:28N 57°11' W 002°02'0 0.0
2018-Feb-15 17:58N 57°11' W 002°02'0 0.0
2018-Feb-15 17:28N 57°11' W 002°02'0 0.0
2018-Feb-15 17:00N 57°11' W 002°02'0 0.0
2018-Feb-15 16:30N 57°11' W 002°02'0 0.0
2018-Feb-15 16:00N 57°11' W 002°02'0 0.0
2018-Feb-15 15:30N 57°11' W 002°02'0 0.0
2018-Feb-15 15:01N 57°11' W 002°02'0 0.0
2018-Feb-15 14:30N 57°11' W 002°02'0 0.0
2018-Feb-15 14:00N 57°11' W 002°02'0 0.1
2018-Feb-15 13:30N 57°11' W 002°02'0 0.0
2018-Feb-15 13:00N 57°11' W 002°02'0 0.0
2018-Feb-15 12:30N 57°11' W 002°02'0 0.0
2018-Feb-15 12:00N 57°11' W 002°02'0 0.0
2018-Feb-15 11:30N 57°11' W 002°02'0 0.0
2018-Feb-15 11:00N 57°11' W 002°02'0 0.0
2018-Feb-15 10:30N 57°11' W 002°02'2 3.2
2018-Feb-15 10:00N 57°10' W 001°60'3 5.2
2018-Feb-15 09:30N 57°09' W 001°55'2 3.9
2018-Feb-15 09:00N 57°09' W 001°52'2 3.9
2018-Feb-15 08:31N 57°10' W 001°48'0 0.5
2018-Feb-15 08:00N 57°10' W 001°49'0 0.7
2018-Feb-15 07:30N 57°10' W 001°50'0 0.7
2018-Feb-15 07:00N 57°10' W 001°50'0 0.6
2018-Feb-15 06:30N 57°10' W 001°51'0 0.5
2018-Feb-15 06:00N 57°10' W 001°51'0 0.2
2018-Feb-15 05:30N 57°10' W 001°51'0 0.2
2018-Feb-15 05:00N 57°10' W 001°51'0 0.5
2018-Feb-15 04:30N 57°10' W 001°51'0 0.3
2018-Feb-15 04:00N 57°10' W 001°51'0 0.3
2018-Feb-15 03:30N 57°10' W 001°51'0 0.2
2018-Feb-15 03:00N 57°10' W 001°51'0 0.2
2018-Feb-15 02:30N 57°10' W 001°51'0 0.5
2018-Feb-15 02:00N 57°10' W 001°52'0 0.3
2018-Feb-15 01:30N 57°10' W 001°52'1 0.3
2018-Feb-14 23:09N 57°10' W 001°52'0 0.4
2018-Feb-14 23:00N 57°10' W 001°52'0 0.6
2018-Feb-14 22:30N 57°10' W 001°51'0 0.4
2018-Feb-14 22:00N 57°10' W 001°51'0 0.4
2018-Feb-14 21:30N 57°10' W 001°51'0 0.3
2018-Feb-14 21:00N 57°10' W 001°51'0 0.8
2018-Feb-14 20:30N 57°11' W 001°51'1 1.2
2018-Feb-14 20:00N 57°10' W 001°51'0 0.5
2018-Feb-14 19:30N 57°10' W 001°52'0 0.8
2018-Feb-14 19:00N 57°10' W 001°52'0 1.0
2018-Feb-14 18:30N 57°09' W 001°53'0 0.1
2018-Feb-14 18:00N 57°09' W 001°53'0 0.5
2018-Feb-14 17:30N 57°09' W 001°53'0 0.7
2018-Feb-14 17:00N 57°09' W 001°53'0 0.4
2018-Feb-14 16:29N 57°09' W 001°54'0 0.5
2018-Feb-14 16:00N 57°08' W 001°54'0 0.4
2018-Feb-14 15:30N 57°08' W 001°54'0 0.4
2018-Feb-14 15:00N 57°08' W 001°55'0 0.4
2018-Feb-14 14:30N 57°08' W 001°55'0 0.8
2018-Feb-14 14:01N 57°08' W 001°55'0 0.6
2018-Feb-14 13:30N 57°08' W 001°56'1 1.2
2018-Feb-14 13:00N 57°08' W 001°57'1 1.7
2018-Feb-14 12:31N 57°09' W 001°57'1 2.1
2018-Feb-14 12:00N 57°09' W 001°59'1 2.9
2018-Feb-14 11:30N 57°10' W 002°01'1 2.3
2018-Feb-14 10:59N 57°11' W 002°03'0 0.1
2018-Feb-14 10:29N 57°11' W 002°03'0 0.3
2018-Feb-14 09:59N 57°11' W 002°03'0 0.0
2018-Feb-14 09:29N 57°11' W 002°03'0 0.0
2018-Feb-14 08:59N 57°11' W 002°03'0 0.2
2018-Feb-14 08:29N 57°11' W 002°03'0 0.2
2018-Feb-14 07:59N 57°11' W 002°03'0 0.0
2018-Feb-14 07:29N 57°11' W 002°03'0 0.0
2018-Feb-14 06:59N 57°11' W 002°03'0 0.1
2018-Feb-14 06:29N 57°11' W 002°03'0 0.0
2018-Feb-14 05:59N 57°11' W 002°03'0 0.0
2018-Feb-14 05:29N 57°11' W 002°03'0 0.0
2018-Feb-14 04:59N 57°11' W 002°03'0 0.0
2018-Feb-14 04:29N 57°11' W 002°03'0 0.0
2018-Feb-14 03:53N 57°11' W 002°03'0 0.0
2018-Feb-14 03:29N 57°11' W 002°03'0 0.0
2018-Feb-14 02:59N 57°11' W 002°03'0 0.0
2018-Feb-14 02:29N 57°11' W 002°03'0 0.0
2018-Feb-14 01:59N 57°11' W 002°03'0 0.0
2018-Feb-14 01:29N 57°11' W 002°03'0 0.0
2018-Feb-14 00:59N 57°11' W 002°03'0 0.0
2018-Feb-14 00:29N 57°11' W 002°03'0 0.1
2018-Feb-13 23:56N 57°11' W 002°03'0 0.0
2018-Feb-13 23:29N 57°11' W 002°03'0 0.0
2018-Feb-13 22:59N 57°11' W 002°03'0 0.1
2018-Feb-13 22:29N 57°11' W 002°03'0 0.0
2018-Feb-13 21:59N 57°11' W 002°03'0 0.0
2018-Feb-13 21:29N 57°11' W 002°03'0 0.1
2018-Feb-13 20:59N 57°11' W 002°03'0 0.0
2018-Feb-13 20:29N 57°11' W 002°03'0 0.0
2018-Feb-13 19:59N 57°11' W 002°03'0 0.0
2018-Feb-13 19:29N 57°11' W 002°03'0 0.0
2018-Feb-13 18:59N 57°11' W 002°03'0 0.0
2018-Feb-13 18:29N 57°11' W 002°03'0 0.0
2018-Feb-13 17:59N 57°11' W 002°03'0 0.0
2018-Feb-13 17:29N 57°11' W 002°03'0 0.0
2018-Feb-13 16:56N 57°11' W 002°03'0 0.0
2018-Feb-13 16:29N 57°11' W 002°03'0 0.0
2018-Feb-13 15:59N 57°11' W 002°03'0 0.0
2018-Feb-13 15:28N 57°11' W 002°03'0 0.0
2018-Feb-13 14:59N 57°11' W 002°03'0 0.0
2018-Feb-13 14:30N 57°11' W 002°03'0 0.0
2018-Feb-13 14:00N 57°11' W 002°03'0 0.1
2018-Feb-13 13:31N 57°11' W 002°03'1 2.2
2018-Feb-13 13:01N 57°12' W 002°03'0 0.0
2018-Feb-13 12:30N 57°12' W 002°03'0 0.1
2018-Feb-13 12:00N 57°12' W 002°03'0 0.0
2018-Feb-13 11:31N 57°12' W 002°03'0 0.1
2018-Feb-13 11:01N 57°12' W 002°03'0 0.0
2018-Feb-13 10:31N 57°12' W 002°03'0 0.0
2018-Feb-13 10:00N 57°12' W 002°03'0 0.0
2018-Feb-13 09:30N 57°12' W 002°03'0 0.0
2018-Feb-13 09:01N 57°12' W 002°03'0 0.0
2018-Feb-13 08:31N 57°12' W 002°03'0 0.0
2018-Feb-13 08:01N 57°12' W 002°03'0 0.0
2018-Feb-13 07:31N 57°12' W 002°03'0 0.0
2018-Feb-13 07:01N 57°12' W 002°03'0 0.0
2018-Feb-13 06:30N 57°12' W 002°03'0 0.0
2018-Feb-13 06:00N 57°12' W 002°03'0 0.0
2018-Feb-13 05:31N 57°12' W 002°03'0 0.0
2018-Feb-13 05:00N 57°12' W 002°03'0 0.0
2018-Feb-13 04:31N 57°12' W 002°03'0 0.5
2018-Feb-13 04:01N 57°12' W 002°03'0 0.0
2018-Feb-13 03:30N 57°12' W 002°03'0 0.0
2018-Feb-13 03:01N 57°12' W 002°03'1 2.5
2018-Feb-13 02:31N 57°12' W 002°00'1 2.1
2018-Feb-13 02:01N 57°11' W 001°59'2 4.9
2018-Feb-13 01:30N 57°11' W 001°54'3 5.1
2018-Feb-13 01:00N 57°11' W 001°49'3 5.4
2018-Feb-13 00:31N 57°11' W 001°44'3 5.0
2018-Feb-13 00:00N 57°11' W 001°40'2 4.3
2018-Feb-12 23:30N 57°11' W 001°44'3 5.1
2018-Feb-12 23:00N 57°11' W 001°48'3 5.3
2018-Feb-12 22:31N 57°11' W 001°53'2 4.8
2018-Feb-12 22:00N 57°11' W 001°58'1 1.8
2018-Feb-12 21:31N 57°11' W 001°59'0 0.1
2018-Feb-12 21:00N 57°11' W 001°59'0 0.1
2018-Feb-12 20:30N 57°11' W 001°60'0 0.0
2018-Feb-12 20:01N 57°11' W 001°60'0 0.0
2018-Feb-12 19:30N 57°11' W 001°60'0 0.1
2018-Feb-12 19:00N 57°11' W 001°60'0 0.0
2018-Feb-12 18:30N 57°11' W 001°60'0 0.1
2018-Feb-12 18:00N 57°11' W 001°60'0 0.1
2018-Feb-12 17:31N 57°11' W 001°60'0 0.1
2018-Feb-12 17:01N 57°11' W 001°60'0 0.0
2018-Feb-12 16:31N 57°11' W 001°60'0 0.1
2018-Feb-12 16:01N 57°11' W 001°60'0 0.5
2018-Feb-12 15:31N 57°11' W 001°60'0 0.1
2018-Feb-12 15:01N 57°11' W 001°60'0 0.2
2018-Feb-12 14:31N 57°11' W 001°60'0 0.0
2018-Feb-12 14:01N 57°11' W 001°60'0 0.1
2018-Feb-12 13:31N 57°11' W 001°60'0 0.1
2018-Feb-12 13:01N 57°11' W 001°60'0 0.1
2018-Feb-12 12:30N 57°11' W 001°60'0 0.3
2018-Feb-12 12:00N 57°11' W 001°60'0 0.1
2018-Feb-12 11:31N 57°11' W 001°60'0 0.0
2018-Feb-12 11:00N 57°11' W 001°60'0 0.0
2018-Feb-12 10:31N 57°11' W 001°60'0 0.0
2018-Feb-12 10:00N 57°11' W 001°60'0 0.1
2018-Feb-12 09:31N 57°11' W 001°60'0 0.1
2018-Feb-12 09:00N 57°11' W 001°60'0 0.0
2018-Feb-12 08:30N 57°11' W 001°60'0 0.1
2018-Feb-12 08:01N 57°11' W 001°60'0 0.1
2018-Feb-12 07:31N 57°11' W 001°60'0 0.2
2018-Feb-12 07:01N 57°11' W 001°60'0 0.2
2018-Feb-12 06:30N 57°11' W 001°60'0 0.1
2018-Feb-12 06:01N 57°11' W 001°60'0 0.1
2018-Feb-12 05:31N 57°11' W 001°60'0 0.0
2018-Feb-12 05:01N 57°11' W 001°60'0 0.1
2018-Feb-12 04:30N 57°11' W 001°60'0 0.1
2018-Feb-12 04:01N 57°11' W 001°60'0 0.0
2018-Feb-12 03:30N 57°11' W 001°60'0 0.1
2018-Feb-12 03:01N 57°11' W 001°60'0 0.0
2018-Feb-12 02:31N 57°11' W 001°60'0 0.3
2018-Feb-12 02:01N 57°11' W 001°60'3 5.1
2018-Feb-12 01:30N 57°11' W 001°55'3 5.5
2018-Feb-12 01:00N 57°11' W 001°50'3 5.5
2018-Feb-12 00:31N 57°11' W 001°45'3 5.1
2018-Feb-12 00:01N 57°11' W 001°40'2 3.8
2018-Feb-11 23:30N 57°11' W 001°44'2 4.6
2018-Feb-11 23:00N 57°11' W 001°48'2 4.4
2018-Feb-11 22:30N 57°11' W 001°52'2 4.3
2018-Feb-11 22:01N 57°11' W 001°56'2 4.1
2018-Feb-11 21:31N 57°11' W 001°60'0 0.1
2018-Feb-11 21:01N 57°11' W 001°60'0 0.1
2018-Feb-11 20:31N 57°11' W 001°60'0 0.1
2018-Feb-11 20:00N 57°11' W 001°60'0 0.0
2018-Feb-11 19:31N 57°11' W 001°60'0 0.1
2018-Feb-11 19:01N 57°11' W 001°60'0 0.0
2018-Feb-11 18:31N 57°11' W 001°60'0 0.1
2018-Feb-11 18:00N 57°11' W 001°60'0 0.0
2018-Feb-11 17:31N 57°11' W 001°60'0 0.1
2018-Feb-11 17:01N 57°11' W 001°60'0 0.0
2018-Feb-11 16:31N 57°11' W 001°60'0 0.0
2018-Feb-11 16:01N 57°11' W 001°60'0 0.0
2018-Feb-11 15:30N 57°11' W 001°60'0 0.0
2018-Feb-11 15:01N 57°11' W 001°60'0 0.1
2018-Feb-11 14:31N 57°11' W 001°60'0 0.0
2018-Feb-11 14:01N 57°11' W 001°60'0 0.2
2018-Feb-11 13:31N 57°11' W 001°60'0 0.1
2018-Feb-11 13:00N 57°11' W 001°60'0 0.2
2018-Feb-11 12:31N 57°11' W 001°60'0 0.2
2018-Feb-11 12:01N 57°11' W 001°60'0 0.1
2018-Feb-11 11:31N 57°11' W 001°60'0 0.9
2018-Feb-11 11:00N 57°10' W 002°00'2 3.3
2018-Feb-11 10:31N 57°10' W 002°02'0 0.0
2018-Feb-11 10:01N 57°10' W 002°02'0 0.1
2018-Feb-11 09:30N 57°09' W 002°02'2 4.0
2018-Feb-11 09:01N 57°11' W 001°60'0 0.0
2018-Feb-11 07:14N 57°11' W 001°60'0 0.5
2018-Feb-11 07:01N 57°11' W 001°60'0 0.2
2018-Feb-11 06:31N 57°11' W 001°60'0 0.4
2018-Feb-11 06:00N 57°11' W 002°00'0 0.1
2018-Feb-11 05:31N 57°11' W 002°00'0 0.3
2018-Feb-11 05:00N 57°11' W 002°00'0 0.1
2018-Feb-11 04:30N 57°11' W 001°60'0 0.1
2018-Feb-11 04:01N 57°11' W 001°60'0 0.0
2018-Feb-11 03:30N 57°11' W 001°60'0 0.0
2018-Feb-11 03:00N 57°11' W 001°60'0 0.0
2018-Feb-11 02:31N 57°11' W 001°60'0 0.1
2018-Feb-11 02:01N 57°11' W 001°60'3 5.4
2018-Feb-11 01:31N 57°11' W 001°55'3 5.9
2018-Feb-11 01:00N 57°11' W 001°49'3 5.4
2018-Feb-11 00:31N 57°11' W 001°45'2 4.9
2018-Feb-11 00:01N 57°11' W 001°40'2 3.9
2018-Feb-10 23:31N 57°11' W 001°44'3 4.9
2018-Feb-10 23:00N 57°11' W 001°48'2 4.8
2018-Feb-10 22:30N 57°11' W 001°53'3 5.2
2018-Feb-10 22:00N 57°11' W 001°57'1 2.5
2018-Feb-10 21:31N 57°11' W 001°60'0 0.1
2018-Feb-10 21:01N 57°11' W 001°60'0 0.1
2018-Feb-10 20:31N 57°11' W 001°60'0 0.1
2018-Feb-10 20:01N 57°11' W 001°60'0 0.0
2018-Feb-10 19:31N 57°11' W 001°60'0 0.0
2018-Feb-10 19:01N 57°11' W 001°60'0 0.0
2018-Feb-10 18:30N 57°11' W 001°60'0 0.1
2018-Feb-10 18:01N 57°11' W 001°60'0 0.4
2018-Feb-10 17:31N 57°11' W 002°00'1 2.9
2018-Feb-10 17:01N 57°10' W 002°01'3 6.0
2018-Feb-10 16:30N 57°09' W 001°56'510.2
2018-Feb-10 16:01N 57°08' W 001°47'510.3
2018-Feb-10 15:30N 57°05' W 001°39'10 0.5
2018-Feb-09 19:01N 57°09' W 001°56'4 8.8
2018-Feb-09 18:31N 57°08' W 002°04'0 0.2
2018-Feb-09 18:01N 57°09' W 002°04'4 1.4
2018-Feb-09 15:31N 57°11' W 001°60'0 0.1
2018-Feb-09 13:01N 57°11' W 001°60'0 0.1
2018-Feb-09 12:01N 57°11' W 001°60'0 0.1
2018-Feb-09 11:01N 57°11' W 001°60'0 0.0
2018-Feb-09 09:31N 57°11' W 001°60'0 0.0
2018-Feb-09 08:30N 57°11' W 001°60'0 0.4
2018-Feb-09 08:00N 57°11' W 002°00'9 4.3
2018-Feb-09 06:01N 57°10' W 001°44'5 0.1
2018-Feb-07 21:11N 57°15' W 001°45'  
Track history (hours):
 
Tides and Currents Weather Stations Pressure Air Temp Water Temp Dewpoint Dewpoint Depression Visibility Wind Speed Wind Dir Waves Ship Positions

Far Sitella

Last reported at 2018-Feb-17 17:48 UTC. Time now 2018-Feb-17 23:07 UTC.
Position N 57°53' W 001°36'.

Length 82 m; draft 5 m.

Type: Other ship. MMSI: 566783000.

Date/timePositionNaut miles runAvg speedWind from/ knotsBaromVisibWave heightAir tempDewpointWater temp
2018-Feb-17 17:48N 57°53' W 001°36'311.6
2018-Feb-17 17:30N 57°49' W 001°36'611.4
2018-Feb-17 17:00N 57°44' W 001°36'611.0
2018-Feb-17 16:30N 57°38' W 001°35'510.5
2018-Feb-17 16:00N 57°33' W 001°36'5 9.8
2018-Feb-17 15:30N 57°28' W 001°37'10 9.9
2018-Feb-17 14:28N 57°19' W 001°47'4 9.7
2018-Feb-17 14:00N 57°15' W 001°52'5 9.5
2018-Feb-17 13:31N 57°12' W 001°57'5 9.2
2018-Feb-17 13:01N 57°09' W 002°04'1 1.5
2018-Feb-17 12:31N 57°09' W 002°05'0 0.0
2018-Feb-17 11:58N 57°09' W 002°05'0 0.0
2018-Feb-17 11:29N 57°09' W 002°05'0 0.0
2018-Feb-17 10:59N 57°09' W 002°05'0 0.0
2018-Feb-17 10:29N 57°09' W 002°05'0 0.0
2018-Feb-17 09:59N 57°09' W 002°05'0 0.0
2018-Feb-17 09:29N 57°09' W 002°05'0 0.0
2018-Feb-17 08:58N 57°09' W 002°05'0 0.0
2018-Feb-17 08:29N 57°09' W 002°05'0 0.0
2018-Feb-17 07:59N 57°09' W 002°05'0 0.0
2018-Feb-17 07:29N 57°09' W 002°05'0 0.0
2018-Feb-17 06:58N 57°09' W 002°05'0 0.0
2018-Feb-17 06:28N 57°09' W 002°05'0 0.0
2018-Feb-17 05:59N 57°09' W 002°05'0 0.0
2018-Feb-17 05:29N 57°09' W 002°05'0 0.0
2018-Feb-17 04:59N 57°09' W 002°05'0 0.0
2018-Feb-17 04:29N 57°09' W 002°05'0 0.0
2018-Feb-17 03:59N 57°09' W 002°05'0 0.0
2018-Feb-17 03:29N 57°09' W 002°05'0 0.0
2018-Feb-17 02:58N 57°09' W 002°05'0 0.0
2018-Feb-17 02:29N 57°09' W 002°05'0 0.0
2018-Feb-17 01:58N 57°09' W 002°05'0 0.0
2018-Feb-17 01:29N 57°09' W 002°05'0 0.0
2018-Feb-17 00:58N 57°09' W 002°05'0 0.0
2018-Feb-17 00:28N 57°09' W 002°05'0 0.0
2018-Feb-16 23:59N 57°09' W 002°05'0 0.0
2018-Feb-16 23:28N 57°09' W 002°05'0 0.0
2018-Feb-16 22:58N 57°09' W 002°05'0 0.0
2018-Feb-16 22:28N 57°09' W 002°05'0 0.0
2018-Feb-16 21:58N 57°09' W 002°05'0 0.0
2018-Feb-16 21:28N 57°09' W 002°05'0 0.0
2018-Feb-16 20:58N 57°09' W 002°05'0 0.0
2018-Feb-16 20:28N 57°09' W 002°05'0 0.0
2018-Feb-16 19:58N 57°09' W 002°05'0 0.8
2018-Feb-16 19:30N 57°08' W 002°05'0 0.2
2018-Feb-16 19:00N 57°08' W 002°05'0 0.0
2018-Feb-16 18:30N 57°08' W 002°05'0 0.0
2018-Feb-16 18:00N 57°08' W 002°05'0 0.0
2018-Feb-16 17:30N 57°08' W 002°05'0 0.0
2018-Feb-16 17:00N 57°08' W 002°05'0 0.0
2018-Feb-16 16:30N 57°08' W 002°05'0 0.0
2018-Feb-16 16:00N 57°08' W 002°05'0 0.0
2018-Feb-16 15:30N 57°08' W 002°05'0 0.0
2018-Feb-16 15:00N 57°08' W 002°05'0 0.0
2018-Feb-16 14:30N 57°08' W 002°05'0 0.0
2018-Feb-16 14:00N 57°08' W 002°05'0 0.3
2018-Feb-16 13:31N 57°08' W 002°04'2 3.8
2018-Feb-16 13:00N 57°10' W 002°02'1 2.6
2018-Feb-16 12:30N 57°11' W 002°02'0 0.1
2018-Feb-16 11:58N 57°11' W 002°02'0 0.0
2018-Feb-16 11:28N 57°11' W 002°02'0 0.0
2018-Feb-16 10:58N 57°11' W 002°02'0 0.0
2018-Feb-16 10:28N 57°11' W 002°02'0 0.0
2018-Feb-16 09:55N 57°11' W 002°02'0 0.0
2018-Feb-16 09:28N 57°11' W 002°02'0 0.0
2018-Feb-16 08:58N 57°11' W 002°02'0 0.0
2018-Feb-16 08:28N 57°11' W 002°02'0 0.0
2018-Feb-16 07:58N 57°11' W 002°02'0 0.0
2018-Feb-16 07:28N 57°11' W 002°02'0 0.1
2018-Feb-16 06:58N 57°11' W 002°02'0 0.0
2018-Feb-16 06:28N 57°11' W 002°02'0 0.1
2018-Feb-16 05:58N 57°11' W 002°02'0 0.0
2018-Feb-16 05:28N 57°11' W 002°02'0 0.0
2018-Feb-16 04:55N 57°11' W 002°02'0 0.0
2018-Feb-16 04:28N 57°11' W 002°02'0 0.0
2018-Feb-16 03:58N 57°11' W 002°02'0 0.0
2018-Feb-16 03:28N 57°11' W 002°02'0 0.1
2018-Feb-16 02:58N 57°11' W 002°02'0 0.1
2018-Feb-16 02:28N 57°11' W 002°02'0 0.0
2018-Feb-16 01:58N 57°11' W 002°02'0 0.0
2018-Feb-16 01:28N 57°11' W 002°02'0 0.0
2018-Feb-16 00:58N 57°11' W 002°02'0 0.0
2018-Feb-16 00:28N 57°11' W 002°02'0 0.0
2018-Feb-15 23:58N 57°11' W 002°02'0 0.0
2018-Feb-15 23:28N 57°11' W 002°02'0 0.1
2018-Feb-15 22:58N 57°11' W 002°02'0 0.0
2018-Feb-15 22:25N 57°11' W 002°02'0 0.0
2018-Feb-15 21:58N 57°11' W 002°02'0 0.0
2018-Feb-15 21:28N 57°11' W 002°02'0 0.0
2018-Feb-15 20:58N 57°11' W 002°02'0 0.0
2018-Feb-15 20:28N 57°11' W 002°02'0 0.0
2018-Feb-15 19:58N 57°11' W 002°02'0 0.0
2018-Feb-15 19:28N 57°11' W 002°02'0 0.0
2018-Feb-15 18:58N 57°11' W 002°02'0 0.0
2018-Feb-15 18:28N 57°11' W 002°02'0 0.0
2018-Feb-15 17:58N 57°11' W 002°02'0 0.0
2018-Feb-15 17:28N 57°11' W 002°02'0 0.0
2018-Feb-15 17:00N 57°11' W 002°02'0 0.0
2018-Feb-15 16:30N 57°11' W 002°02'0 0.0
2018-Feb-15 16:00N 57°11' W 002°02'0 0.0
2018-Feb-15 15:30N 57°11' W 002°02'0 0.0
2018-Feb-15 15:01N 57°11' W 002°02'0 0.0
2018-Feb-15 14:30N 57°11' W 002°02'0 0.0
2018-Feb-15 14:00N 57°11' W 002°02'0 0.1
2018-Feb-15 13:30N 57°11' W 002°02'0 0.0
2018-Feb-15 13:00N 57°11' W 002°02'0 0.0
2018-Feb-15 12:30N 57°11' W 002°02'0 0.0
2018-Feb-15 12:00N 57°11' W 002°02'0 0.0
2018-Feb-15 11:30N 57°11' W 002°02'0 0.0
2018-Feb-15 11:00N 57°11' W 002°02'0 0.0
2018-Feb-15 10:30N 57°11' W 002°02'2 3.2
2018-Feb-15 10:00N 57°10' W 001°60'3 5.2
2018-Feb-15 09:30N 57°09' W 001°55'2 3.9
2018-Feb-15 09:00N 57°09' W 001°52'2 3.9
2018-Feb-15 08:31N 57°10' W 001°48'0 0.5
2018-Feb-15 08:00N 57°10' W 001°49'0 0.7
2018-Feb-15 07:30N 57°10' W 001°50'0 0.7
2018-Feb-15 07:00N 57°10' W 001°50'0 0.6
2018-Feb-15 06:30N 57°10' W 001°51'0 0.5
2018-Feb-15 06:00N 57°10' W 001°51'0 0.2
2018-Feb-15 05:30N 57°10' W 001°51'0 0.2
2018-Feb-15 05:00N 57°10' W 001°51'0 0.5
2018-Feb-15 04:30N 57°10' W 001°51'0 0.3
2018-Feb-15 04:00N 57°10' W 001°51'0 0.3
2018-Feb-15 03:30N 57°10' W 001°51'0 0.2
2018-Feb-15 03:00N 57°10' W 001°51'0 0.2
2018-Feb-15 02:30N 57°10' W 001°51'0 0.5
2018-Feb-15 02:00N 57°10' W 001°52'0 0.3
2018-Feb-15 01:30N 57°10' W 001°52'1 0.3
2018-Feb-14 23:09N 57°10' W 001°52'0 0.4
2018-Feb-14 23:00N 57°10' W 001°52'0 0.6
2018-Feb-14 22:30N 57°10' W 001°51'0 0.4
2018-Feb-14 22:00N 57°10' W 001°51'0 0.4
2018-Feb-14 21:30N 57°10' W 001°51'0 0.3
2018-Feb-14 21:00N 57°10' W 001°51'0 0.8
2018-Feb-14 20:30N 57°11' W 001°51'1 1.2
2018-Feb-14 20:00N 57°10' W 001°51'0 0.5
2018-Feb-14 19:30N 57°10' W 001°52'0 0.8
2018-Feb-14 19:00N 57°10' W 001°52'0 1.0
2018-Feb-14 18:30N 57°09' W 001°53'0 0.1
2018-Feb-14 18:00N 57°09' W 001°53'0 0.5
2018-Feb-14 17:30N 57°09' W 001°53'0 0.7
2018-Feb-14 17:00N 57°09' W 001°53'0 0.4
2018-Feb-14 16:29N 57°09' W 001°54'0 0.5
2018-Feb-14 16:00N 57°08' W 001°54'0 0.4
2018-Feb-14 15:30N 57°08' W 001°54'0 0.4
2018-Feb-14 15:00N 57°08' W 001°55'0 0.4
2018-Feb-14 14:30N 57°08' W 001°55'0 0.8
2018-Feb-14 14:01N 57°08' W 001°55'0 0.6
2018-Feb-14 13:30N 57°08' W 001°56'1 1.2
2018-Feb-14 13:00N 57°08' W 001°57'1 1.7
2018-Feb-14 12:31N 57°09' W 001°57'1 2.1
2018-Feb-14 12:00N 57°09' W 001°59'1 2.9
2018-Feb-14 11:30N 57°10' W 002°01'1 2.3
2018-Feb-14 10:59N 57°11' W 002°03'0 0.1
2018-Feb-14 10:29N 57°11' W 002°03'0 0.3
2018-Feb-14 09:59N 57°11' W 002°03'0 0.0
2018-Feb-14 09:29N 57°11' W 002°03'0 0.0
2018-Feb-14 08:59N 57°11' W 002°03'0 0.2
2018-Feb-14 08:29N 57°11' W 002°03'0 0.2
2018-Feb-14 07:59N 57°11' W 002°03'0 0.0
2018-Feb-14 07:29N 57°11' W 002°03'0 0.0
2018-Feb-14 06:59N 57°11' W 002°03'0 0.1
2018-Feb-14 06:29N 57°11' W 002°03'0 0.0
2018-Feb-14 05:59N 57°11' W 002°03'0 0.0
2018-Feb-14 05:29N 57°11' W 002°03'0 0.0
2018-Feb-14 04:59N 57°11' W 002°03'0 0.0
2018-Feb-14 04:29N 57°11' W 002°03'0 0.0
2018-Feb-14 03:53N 57°11' W 002°03'0 0.0
2018-Feb-14 03:29N 57°11' W 002°03'0 0.0
2018-Feb-14 02:59N 57°11' W 002°03'0 0.0
2018-Feb-14 02:29N 57°11' W 002°03'0 0.0
2018-Feb-14 01:59N 57°11' W 002°03'0 0.0
2018-Feb-14 01:29N 57°11' W 002°03'0 0.0
2018-Feb-14 00:59N 57°11' W 002°03'0 0.0
2018-Feb-14 00:29N 57°11' W 002°03'0 0.1
2018-Feb-13 23:56N 57°11' W 002°03'0 0.0
2018-Feb-13 23:29N 57°11' W 002°03'0 0.0
2018-Feb-13 22:59N 57°11' W 002°03'0 0.1
2018-Feb-13 22:29N 57°11' W 002°03'0 0.0
2018-Feb-13 21:59N 57°11' W 002°03'0 0.0
2018-Feb-13 21:29N 57°11' W 002°03'0 0.1
2018-Feb-13 20:59N 57°11' W 002°03'0 0.0
2018-Feb-13 20:29N 57°11' W 002°03'0 0.0
2018-Feb-13 19:59N 57°11' W 002°03'0 0.0
2018-Feb-13 19:29N 57°11' W 002°03'0 0.0
2018-Feb-13 18:59N 57°11' W 002°03'0 0.0
2018-Feb-13 18:29N 57°11' W 002°03'0 0.0
2018-Feb-13 17:59N 57°11' W 002°03'0 0.0
2018-Feb-13 17:29N 57°11' W 002°03'0 0.0
2018-Feb-13 16:56N 57°11' W 002°03'0 0.0
2018-Feb-13 16:29N 57°11' W 002°03'0 0.0
2018-Feb-13 15:59N 57°11' W 002°03'0 0.0
2018-Feb-13 15:28N 57°11' W 002°03'0 0.0
2018-Feb-13 14:59N 57°11' W 002°03'0 0.0
2018-Feb-13 14:30N 57°11' W 002°03'0 0.0
2018-Feb-13 14:00N 57°11' W 002°03'0 0.1
2018-Feb-13 13:31N 57°11' W 002°03'1 2.2
2018-Feb-13 13:01N 57°12' W 002°03'0 0.0
2018-Feb-13 12:30N 57°12' W 002°03'0 0.1
2018-Feb-13 12:00N 57°12' W 002°03'0 0.0
2018-Feb-13 11:31N 57°12' W 002°03'0 0.1
2018-Feb-13 11:01N 57°12' W 002°03'0 0.0
2018-Feb-13 10:31N 57°12' W 002°03'0 0.0
2018-Feb-13 10:00N 57°12' W 002°03'0 0.0
2018-Feb-13 09:30N 57°12' W 002°03'0 0.0
2018-Feb-13 09:01N 57°12' W 002°03'0 0.0
2018-Feb-13 08:31N 57°12' W 002°03'0 0.0
2018-Feb-13 08:01N 57°12' W 002°03'0 0.0
2018-Feb-13 07:31N 57°12' W 002°03'0 0.0
2018-Feb-13 07:01N 57°12' W 002°03'0 0.0
2018-Feb-13 06:30N 57°12' W 002°03'0 0.0
2018-Feb-13 06:00N 57°12' W 002°03'0 0.0
2018-Feb-13 05:31N 57°12' W 002°03'0 0.0
2018-Feb-13 05:00N 57°12' W 002°03'0 0.0
2018-Feb-13 04:31N 57°12' W 002°03'0 0.5
2018-Feb-13 04:01N 57°12' W 002°03'0 0.0
2018-Feb-13 03:30N 57°12' W 002°03'0 0.0
2018-Feb-13 03:01N 57°12' W 002°03'1 2.5
2018-Feb-13 02:31N 57°12' W 002°00'1 2.1
2018-Feb-13 02:01N 57°11' W 001°59'2 4.9
2018-Feb-13 01:30N 57°11' W 001°54'3 5.1
2018-Feb-13 01:00N 57°11' W 001°49'3 5.4
2018-Feb-13 00:31N 57°11' W 001°44'3 5.0
2018-Feb-13 00:00N 57°11' W 001°40'2 4.3
2018-Feb-12 23:30N 57°11' W 001°44'3 5.1
2018-Feb-12 23:00N 57°11' W 001°48'3 5.3
2018-Feb-12 22:31N 57°11' W 001°53'2 4.8
2018-Feb-12 22:00N 57°11' W 001°58'1 1.8
2018-Feb-12 21:31N 57°11' W 001°59'0 0.1
2018-Feb-12 21:00N 57°11' W 001°59'0 0.1
2018-Feb-12 20:30N 57°11' W 001°60'0 0.0
2018-Feb-12 20:01N 57°11' W 001°60'0 0.0
2018-Feb-12 19:30N 57°11' W 001°60'0 0.1
2018-Feb-12 19:00N 57°11' W 001°60'0 0.0
2018-Feb-12 18:30N 57°11' W 001°60'0 0.1
2018-Feb-12 18:00N 57°11' W 001°60'0 0.1
2018-Feb-12 17:31N 57°11' W 001°60'0 0.1
2018-Feb-12 17:01N 57°11' W 001°60'0 0.0
2018-Feb-12 16:31N 57°11' W 001°60'0 0.1
2018-Feb-12 16:01N 57°11' W 001°60'0 0.5
2018-Feb-12 15:31N 57°11' W 001°60'0 0.1
2018-Feb-12 15:01N 57°11' W 001°60'0 0.2
2018-Feb-12 14:31N 57°11' W 001°60'0 0.0
2018-Feb-12 14:01N 57°11' W 001°60'0 0.1
2018-Feb-12 13:31N 57°11' W 001°60'0 0.1
2018-Feb-12 13:01N 57°11' W 001°60'0 0.1
2018-Feb-12 12:30N 57°11' W 001°60'0 0.3
2018-Feb-12 12:00N 57°11' W 001°60'0 0.1
2018-Feb-12 11:31N 57°11' W 001°60'0 0.0
2018-Feb-12 11:00N 57°11' W 001°60'0 0.0
2018-Feb-12 10:31N 57°11' W 001°60'0 0.0
2018-Feb-12 10:00N 57°11' W 001°60'0 0.1
2018-Feb-12 09:31N 57°11' W 001°60'0 0.1
2018-Feb-12 09:00N 57°11' W 001°60'0 0.0
2018-Feb-12 08:30N 57°11' W 001°60'0 0.1
2018-Feb-12 08:01N 57°11' W 001°60'0 0.1
2018-Feb-12 07:31N 57°11' W 001°60'0 0.2
2018-Feb-12 07:01N 57°11' W 001°60'0 0.2
2018-Feb-12 06:30N 57°11' W 001°60'0 0.1
2018-Feb-12 06:01N 57°11' W 001°60'0 0.1
2018-Feb-12 05:31N 57°11' W 001°60'0 0.0
2018-Feb-12 05:01N 57°11' W 001°60'0 0.1
2018-Feb-12 04:30N 57°11' W 001°60'0 0.1
2018-Feb-12 04:01N 57°11' W 001°60'0 0.0
2018-Feb-12 03:30N 57°11' W 001°60'0 0.1
2018-Feb-12 03:01N 57°11' W 001°60'0 0.0
2018-Feb-12 02:31N 57°11' W 001°60'0 0.3
2018-Feb-12 02:01N 57°11' W 001°60'3 5.1
2018-Feb-12 01:30N 57°11' W 001°55'3 5.5
2018-Feb-12 01:00N 57°11' W 001°50'3 5.5
2018-Feb-12 00:31N 57°11' W 001°45'3 5.1
2018-Feb-12 00:01N 57°11' W 001°40'2 3.8
2018-Feb-11 23:30N 57°11' W 001°44'2 4.6
2018-Feb-11 23:00N 57°11' W 001°48'2 4.4
2018-Feb-11 22:30N 57°11' W 001°52'2 4.3
2018-Feb-11 22:01N 57°11' W 001°56'2 4.1
2018-Feb-11 21:31N 57°11' W 001°60'0 0.1
2018-Feb-11 21:01N 57°11' W 001°60'0 0.1
2018-Feb-11 20:31N 57°11' W 001°60'0 0.1
2018-Feb-11 20:00N 57°11' W 001°60'0 0.0
2018-Feb-11 19:31N 57°11' W 001°60'0 0.1
2018-Feb-11 19:01N 57°11' W 001°60'0 0.0
2018-Feb-11 18:31N 57°11' W 001°60'0 0.1
2018-Feb-11 18:00N 57°11' W 001°60'0 0.0
2018-Feb-11 17:31N 57°11' W 001°60'0 0.1
2018-Feb-11 17:01N 57°11' W 001°60'0 0.0
2018-Feb-11 16:31N 57°11' W 001°60'0 0.0
2018-Feb-11 16:01N 57°11' W 001°60'0 0.0
2018-Feb-11 15:30N 57°11' W 001°60'0 0.0
2018-Feb-11 15:01N 57°11' W 001°60'0 0.1
2018-Feb-11 14:31N 57°11' W 001°60'0 0.0
2018-Feb-11 14:01N 57°11' W 001°60'0 0.2
2018-Feb-11 13:31N 57°11' W 001°60'0 0.1
2018-Feb-11 13:00N 57°11' W 001°60'0 0.2
2018-Feb-11 12:31N 57°11' W 001°60'0 0.2
2018-Feb-11 12:01N 57°11' W 001°60'0 0.1
2018-Feb-11 11:31N 57°11' W 001°60'0 0.9
2018-Feb-11 11:00N 57°10' W 002°00'2 3.3
2018-Feb-11 10:31N 57°10' W 002°02'0 0.0
2018-Feb-11 10:01N 57°10' W 002°02'0 0.1
2018-Feb-11 09:30N 57°09' W 002°02'2 4.0
2018-Feb-11 09:01N 57°11' W 001°60'0 0.0
2018-Feb-11 07:14N 57°11' W 001°60'0 0.5
2018-Feb-11 07:01N 57°11' W 001°60'0 0.2
2018-Feb-11 06:31N 57°11' W 001°60'0 0.4
2018-Feb-11 06:00N 57°11' W 002°00'0 0.1
2018-Feb-11 05:31N 57°11' W 002°00'0 0.3
2018-Feb-11 05:00N 57°11' W 002°00'0 0.1
2018-Feb-11 04:30N 57°11' W 001°60'0 0.1
2018-Feb-11 04:01N 57°11' W 001°60'0 0.0
2018-Feb-11 03:30N 57°11' W 001°60'0 0.0
2018-Feb-11 03:00N 57°11' W 001°60'0 0.0
2018-Feb-11 02:31N 57°11' W 001°60'0 0.1
2018-Feb-11 02:01N 57°11' W 001°60'3 5.4
2018-Feb-11 01:31N 57°11' W 001°55'3 5.9
2018-Feb-11 01:00N 57°11' W 001°49'3 5.4
2018-Feb-11 00:31N 57°11' W 001°45'2 4.9
2018-Feb-11 00:01N 57°11' W 001°40'2 3.9
2018-Feb-10 23:31N 57°11' W 001°44'3 4.9
2018-Feb-10 23:00N 57°11' W 001°48'2 4.8
2018-Feb-10 22:30N 57°11' W 001°53'3 5.2
2018-Feb-10 22:00N 57°11' W 001°57'1 2.5
2018-Feb-10 21:31N 57°11' W 001°60'0 0.1
2018-Feb-10 21:01N 57°11' W 001°60'0 0.1
2018-Feb-10 20:31N 57°11' W 001°60'0 0.1
2018-Feb-10 20:01N 57°11' W 001°60'0 0.0
2018-Feb-10 19:31N 57°11' W 001°60'0 0.0
2018-Feb-10 19:01N 57°11' W 001°60'0 0.0
2018-Feb-10 18:30N 57°11' W 001°60'0 0.1
2018-Feb-10 18:01N 57°11' W 001°60'0 0.4
2018-Feb-10 17:31N 57°11' W 002°00'1 2.9
2018-Feb-10 17:01N 57°10' W 002°01'3 6.0
2018-Feb-10 16:30N 57°09' W 001°56'510.2
2018-Feb-10 16:01N 57°08' W 001°47'510.3
2018-Feb-10 15:30N 57°05' W 001°39'10 0.5
2018-Feb-09 19:01N 57°09' W 001°56'4 8.8
2018-Feb-09 18:31N 57°08' W 002°04'0 0.2
2018-Feb-09 18:01N 57°09' W 002°04'4 1.4
2018-Feb-09 15:31N 57°11' W 001°60'0 0.1
2018-Feb-09 13:01N 57°11' W 001°60'0 0.1
2018-Feb-09 12:01N 57°11' W 001°60'0 0.1
2018-Feb-09 11:01N 57°11' W 001°60'0 0.0
2018-Feb-09 09:31N 57°11' W 001°60'0 0.0
2018-Feb-09 08:30N 57°11' W 001°60'0 0.4
2018-Feb-09 08:00N 57°11' W 002°00'9 4.3
2018-Feb-09 06:01N 57°10' W 001°44'5 0.1
2018-Feb-07 21:11N 57°15' W 001°45'  

Dump ship's entire track history